sensor_id;sensor_type;location;lat;lon;timestamp;P1;durP1;ratioP1;P2;durP2;ratioP2
5718;SDS011;2884;47.734;9.244;2023-07-30T00:02:17;1.37;;;1.37;;
5718;SDS011;2884;47.734;9.244;2023-07-30T00:04:44;1.10;;;1.10;;
5718;SDS011;2884;47.734;9.244;2023-07-30T00:07:11;0.90;;;0.90;;
5718;SDS011;2884;47.734;9.244;2023-07-30T00:09:37;0.97;;;0.97;;
5718;SDS011;2884;47.734;9.244;2023-07-30T00:12:04;1.20;;;1.10;;
5718;SDS011;2884;47.734;9.244;2023-07-30T00:14:30;1.30;;;1.30;;
5718;SDS011;2884;47.734;9.244;2023-07-30T00:16:56;1.40;;;1.40;;
5718;SDS011;2884;47.734;9.244;2023-07-30T00:19:21;1.43;;;1.40;;
5718;SDS011;2884;47.734;9.244;2023-07-30T00:21:47;1.70;;;1.60;;
5718;SDS011;2884;47.734;9.244;2023-07-30T00:24:13;1.20;;;1.10;;
5718;SDS011;2884;47.734;9.244;2023-07-30T00:26:38;1.17;;;1.17;;
5718;SDS011;2884;47.734;9.244;2023-07-30T00:29:04;1.00;;;1.00;;
5718;SDS011;2884;47.734;9.244;2023-07-30T00:31:30;0.87;;;0.87;;
5718;SDS011;2884;47.734;9.244;2023-07-30T00:33:56;0.83;;;0.83;;
5718;SDS011;2884;47.734;9.244;2023-07-30T00:36:22;0.93;;;0.93;;
5718;SDS011;2884;47.734;9.244;2023-07-30T00:38:47;0.93;;;0.93;;
5718;SDS011;2884;47.734;9.244;2023-07-30T00:41:13;1.40;;;1.40;;
5718;SDS011;2884;47.734;9.244;2023-07-30T00:43:39;1.50;;;1.50;;
5718;SDS011;2884;47.734;9.244;2023-07-30T00:46:05;1.60;;;1.50;;
5718;SDS011;2884;47.734;9.244;2023-07-30T00:48:31;1.43;;;1.40;;
5718;SDS011;2884;47.734;9.244;2023-07-30T00:50:57;1.40;;;1.30;;
5718;SDS011;2884;47.734;9.244;2023-07-30T00:53:23;1.27;;;1.27;;
5718;SDS011;2884;47.734;9.244;2023-07-30T00:55:52;1.40;;;1.40;;
5718;SDS011;2884;47.734;9.244;2023-07-30T00:58:18;1.70;;;1.70;;
5718;SDS011;2884;47.734;9.244;2023-07-30T01:00:46;1.30;;;1.30;;
5718;SDS011;2884;47.734;9.244;2023-07-30T01:03:12;2.13;;;1.50;;
5718;SDS011;2884;47.734;9.244;2023-07-30T01:05:39;1.43;;;1.43;;
5718;SDS011;2884;47.734;9.244;2023-07-30T01:08:04;1.77;;;1.77;;
5718;SDS011;2884;47.734;9.244;2023-07-30T01:10:30;1.50;;;1.50;;
5718;SDS011;2884;47.734;9.244;2023-07-30T01:12:58;1.23;;;1.23;;
5718;SDS011;2884;47.734;9.244;2023-07-30T01:15:25;1.57;;;1.57;;
5718;SDS011;2884;47.734;9.244;2023-07-30T01:17:51;1.40;;;1.40;;
5718;SDS011;2884;47.734;9.244;2023-07-30T01:20:19;1.40;;;1.40;;
5718;SDS011;2884;47.734;9.244;2023-07-30T01:22:49;1.80;;;1.70;;
5718;SDS011;2884;47.734;9.244;2023-07-30T01:25:15;2.00;;;1.80;;
5718;SDS011;2884;47.734;9.244;2023-07-30T01:27:44;1.73;;;1.50;;
5718;SDS011;2884;47.734;9.244;2023-07-30T01:30:27;1.60;;;1.43;;
5718;SDS011;2884;47.734;9.244;2023-07-30T01:32:55;2.60;;;1.40;;
5718;SDS011;2884;47.734;9.244;2023-07-30T01:35:22;2.57;;;1.70;;
5718;SDS011;2884;47.734;9.244;2023-07-30T01:37:51;1.20;;;1.20;;
5718;SDS011;2884;47.734;9.244;2023-07-30T01:40:17;1.10;;;1.10;;
5718;SDS011;2884;47.734;9.244;2023-07-30T01:42:43;1.80;;;1.50;;
5718;SDS011;2884;47.734;9.244;2023-07-30T01:45:08;1.47;;;1.37;;
5718;SDS011;2884;47.734;9.244;2023-07-30T01:47:34;2.77;;;1.33;;
5718;SDS011;2884;47.734;9.244;2023-07-30T01:49:59;1.30;;;1.20;;
5718;SDS011;2884;47.734;9.244;2023-07-30T01:52:25;1.30;;;1.30;;
5718;SDS011;2884;47.734;9.244;2023-07-30T01:54:51;1.10;;;1.10;;
5718;SDS011;2884;47.734;9.244;2023-07-30T01:57:17;1.43;;;1.33;;
5718;SDS011;2884;47.734;9.244;2023-07-30T01:59:42;1.30;;;1.30;;
5718;SDS011;2884;47.734;9.244;2023-07-30T02:02:08;1.20;;;1.10;;
5718;SDS011;2884;47.734;9.244;2023-07-30T02:04:33;1.20;;;1.20;;
5718;SDS011;2884;47.734;9.244;2023-07-30T02:06:59;1.00;;;1.00;;
5718;SDS011;2884;47.734;9.244;2023-07-30T02:09:25;1.20;;;1.20;;
5718;SDS011;2884;47.734;9.244;2023-07-30T02:11:50;2.40;;;1.70;;
5718;SDS011;2884;47.734;9.244;2023-07-30T02:14:17;1.87;;;1.33;;
5718;SDS011;2884;47.734;9.244;2023-07-30T02:16:43;1.87;;;1.00;;
5718;SDS011;2884;47.734;9.244;2023-07-30T02:19:11;1.13;;;1.13;;
5718;SDS011;2884;47.734;9.244;2023-07-30T02:21:36;1.00;;;1.00;;
5718;SDS011;2884;47.734;9.244;2023-07-30T02:24:04;1.60;;;1.20;;
5718;SDS011;2884;47.734;9.244;2023-07-30T02:26:35;1.10;;;1.10;;
5718;SDS011;2884;47.734;9.244;2023-07-30T02:29:00;1.27;;;1.27;;
5718;SDS011;2884;47.734;9.244;2023-07-30T02:31:26;1.07;;;1.07;;
5718;SDS011;2884;47.734;9.244;2023-07-30T02:33:51;1.20;;;1.20;;
5718;SDS011;2884;47.734;9.244;2023-07-30T02:36:17;1.63;;;1.53;;
5718;SDS011;2884;47.734;9.244;2023-07-30T02:38:42;3.00;;;1.37;;
5718;SDS011;2884;47.734;9.244;2023-07-30T02:41:08;0.97;;;0.97;;
5718;SDS011;2884;47.734;9.244;2023-07-30T02:43:33;1.50;;;1.20;;
5718;SDS011;2884;47.734;9.244;2023-07-30T02:45:59;1.43;;;1.33;;
5718;SDS011;2884;47.734;9.244;2023-07-30T02:48:24;1.77;;;1.40;;
5718;SDS011;2884;47.734;9.244;2023-07-30T02:50:50;1.90;;;1.10;;
5718;SDS011;2884;47.734;9.244;2023-07-30T02:53:15;1.20;;;1.20;;
5718;SDS011;2884;47.734;9.244;2023-07-30T02:55:41;3.50;;;1.30;;
5718;SDS011;2884;47.734;9.244;2023-07-30T02:58:06;1.43;;;1.33;;
5718;SDS011;2884;47.734;9.244;2023-07-30T03:00:32;1.33;;;1.30;;
5718;SDS011;2884;47.734;9.244;2023-07-30T03:02:57;1.17;;;1.07;;
5718;SDS011;2884;47.734;9.244;2023-07-30T03:05:42;1.30;;;1.20;;
5718;SDS011;2884;47.734;9.244;2023-07-30T03:08:08;3.07;;;1.17;;
5718;SDS011;2884;47.734;9.244;2023-07-30T03:10:34;1.33;;;1.33;;
5718;SDS011;2884;47.734;9.244;2023-07-30T03:13:01;1.93;;;1.83;;
5718;SDS011;2884;47.734;9.244;2023-07-30T03:15:27;1.80;;;1.70;;
5718;SDS011;2884;47.734;9.244;2023-07-30T03:17:52;1.50;;;1.40;;
5718;SDS011;2884;47.734;9.244;2023-07-30T03:20:18;1.53;;;1.43;;
5718;SDS011;2884;47.734;9.244;2023-07-30T03:22:43;2.93;;;1.90;;
5718;SDS011;2884;47.734;9.244;2023-07-30T03:25:09;4.10;;;2.43;;
5718;SDS011;2884;47.734;9.244;2023-07-30T03:27:34;2.50;;;2.40;;
5718;SDS011;2884;47.734;9.244;2023-07-30T03:30:00;2.77;;;2.67;;
5718;SDS011;2884;47.734;9.244;2023-07-30T03:32:26;2.47;;;2.30;;
5718;SDS011;2884;47.734;9.244;2023-07-30T03:34:51;1.57;;;1.57;;
5718;SDS011;2884;47.734;9.244;2023-07-30T03:37:17;2.47;;;2.30;;
5718;SDS011;2884;47.734;9.244;2023-07-30T03:39:42;2.40;;;2.30;;
5718;SDS011;2884;47.734;9.244;2023-07-30T03:42:08;1.70;;;1.60;;
5718;SDS011;2884;47.734;9.244;2023-07-30T03:44:33;1.57;;;1.47;;
5718;SDS011;2884;47.734;9.244;2023-07-30T03:46:59;1.50;;;1.50;;
5718;SDS011;2884;47.734;9.244;2023-07-30T03:49:24;1.50;;;1.40;;
5718;SDS011;2884;47.734;9.244;2023-07-30T03:51:50;3.33;;;1.53;;
5718;SDS011;2884;47.734;9.244;2023-07-30T03:54:15;1.30;;;1.30;;
5718;SDS011;2884;47.734;9.244;2023-07-30T03:56:41;7.33;;;1.43;;
5718;SDS011;2884;47.734;9.244;2023-07-30T03:59:07;2.20;;;1.30;;
5718;SDS011;2884;47.734;9.244;2023-07-30T04:01:32;5.60;;;1.43;;
5718;SDS011;2884;47.734;9.244;2023-07-30T04:04:00;1.13;;;1.13;;
5718;SDS011;2884;47.734;9.244;2023-07-30T04:06:26;1.83;;;1.50;;
5718;SDS011;2884;47.734;9.244;2023-07-30T04:08:51;1.33;;;1.33;;
5718;SDS011;2884;47.734;9.244;2023-07-30T04:11:17;2.20;;;1.50;;
5718;SDS011;2884;47.734;9.244;2023-07-30T04:13:42;1.20;;;1.10;;
5718;SDS011;2884;47.734;9.244;2023-07-30T04:16:08;1.10;;;1.10;;
5718;SDS011;2884;47.734;9.244;2023-07-30T04:18:33;1.03;;;1.03;;
5718;SDS011;2884;47.734;9.244;2023-07-30T04:20:59;1.10;;;1.10;;
5718;SDS011;2884;47.734;9.244;2023-07-30T04:23:25;1.40;;;1.30;;
5718;SDS011;2884;47.734;9.244;2023-07-30T04:25:50;2.20;;;1.50;;
5718;SDS011;2884;47.734;9.244;2023-07-30T04:28:16;1.27;;;1.10;;
5718;SDS011;2884;47.734;9.244;2023-07-30T04:30:42;1.27;;;1.27;;
5718;SDS011;2884;47.734;9.244;2023-07-30T04:33:08;1.10;;;1.10;;
5718;SDS011;2884;47.734;9.244;2023-07-30T04:35:35;1.20;;;1.20;;
5718;SDS011;2884;47.734;9.244;2023-07-30T04:38:00;1.37;;;1.37;;
5718;SDS011;2884;47.734;9.244;2023-07-30T04:40:26;1.30;;;1.30;;
5718;SDS011;2884;47.734;9.244;2023-07-30T04:42:51;1.40;;;1.30;;
5718;SDS011;2884;47.734;9.244;2023-07-30T04:45:17;3.47;;;1.27;;
5718;SDS011;2884;47.734;9.244;2023-07-30T04:47:42;1.30;;;1.30;;
5718;SDS011;2884;47.734;9.244;2023-07-30T04:50:08;1.33;;;1.33;;
5718;SDS011;2884;47.734;9.244;2023-07-30T04:52:34;1.90;;;1.10;;
5718;SDS011;2884;47.734;9.244;2023-07-30T04:54:59;3.40;;;1.43;;
5718;SDS011;2884;47.734;9.244;2023-07-30T04:57:25;1.67;;;1.57;;
5718;SDS011;2884;47.734;9.244;2023-07-30T04:59:51;1.60;;;1.50;;
5718;SDS011;2884;47.734;9.244;2023-07-30T05:02:16;2.37;;;1.73;;
5718;SDS011;2884;47.734;9.244;2023-07-30T05:04:42;1.77;;;1.67;;
5718;SDS011;2884;47.734;9.244;2023-07-30T05:07:07;1.43;;;1.43;;
5718;SDS011;2884;47.734;9.244;2023-07-30T05:09:36;1.53;;;1.43;;
5718;SDS011;2884;47.734;9.244;2023-07-30T05:12:02;1.60;;;1.60;;
5718;SDS011;2884;47.734;9.244;2023-07-30T05:14:30;1.87;;;1.50;;
5718;SDS011;2884;47.734;9.244;2023-07-30T05:16:55;2.70;;;1.90;;
5718;SDS011;2884;47.734;9.244;2023-07-30T05:19:21;3.43;;;2.50;;
5718;SDS011;2884;47.734;9.244;2023-07-30T05:21:46;1.63;;;1.63;;
5718;SDS011;2884;47.734;9.244;2023-07-30T05:24:12;2.90;;;1.90;;
5718;SDS011;2884;47.734;9.244;2023-07-30T05:26:39;2.30;;;2.20;;
5718;SDS011;2884;47.734;9.244;2023-07-30T05:29:04;2.90;;;2.37;;
5718;SDS011;2884;47.734;9.244;2023-07-30T05:31:30;3.63;;;1.80;;
5718;SDS011;2884;47.734;9.244;2023-07-30T05:33:55;1.90;;;1.80;;
5718;SDS011;2884;47.734;9.244;2023-07-30T05:36:21;5.43;;;2.30;;
5718;SDS011;2884;47.734;9.244;2023-07-30T05:38:46;2.57;;;2.47;;
5718;SDS011;2884;47.734;9.244;2023-07-30T05:41:14;2.30;;;2.10;;
5718;SDS011;2884;47.734;9.244;2023-07-30T05:43:39;2.50;;;2.20;;
5718;SDS011;2884;47.734;9.244;2023-07-30T05:46:04;3.87;;;2.30;;
5718;SDS011;2884;47.734;9.244;2023-07-30T05:48:30;1.77;;;1.77;;
5718;SDS011;2884;47.734;9.244;2023-07-30T05:50:56;5.90;;;2.30;;
5718;SDS011;2884;47.734;9.244;2023-07-30T05:53:21;2.47;;;2.37;;
5718;SDS011;2884;47.734;9.244;2023-07-30T05:55:47;3.67;;;2.27;;
5718;SDS011;2884;47.734;9.244;2023-07-30T05:58:13;3.70;;;2.10;;
5718;SDS011;2884;47.734;9.244;2023-07-30T06:00:39;2.63;;;2.13;;
5718;SDS011;2884;47.734;9.244;2023-07-30T06:03:04;4.30;;;2.17;;
5718;SDS011;2884;47.734;9.244;2023-07-30T06:05:31;2.20;;;2.10;;
5718;SDS011;2884;47.734;9.244;2023-07-30T06:07:56;2.30;;;2.10;;
5718;SDS011;2884;47.734;9.244;2023-07-30T06:10:25;2.07;;;1.93;;
5718;SDS011;2884;47.734;9.244;2023-07-30T06:12:50;2.00;;;1.90;;
5718;SDS011;2884;47.734;9.244;2023-07-30T06:15:16;2.10;;;2.00;;
5718;SDS011;2884;47.734;9.244;2023-07-30T06:17:42;3.53;;;2.33;;
5718;SDS011;2884;47.734;9.244;2023-07-30T06:20:07;3.53;;;2.13;;
5718;SDS011;2884;47.734;9.244;2023-07-30T06:22:33;2.53;;;2.00;;
5718;SDS011;2884;47.734;9.244;2023-07-30T06:24:59;2.73;;;2.23;;
5718;SDS011;2884;47.734;9.244;2023-07-30T06:27:24;1.93;;;1.83;;
5718;SDS011;2884;47.734;9.244;2023-07-30T06:29:50;2.13;;;1.90;;
5718;SDS011;2884;47.734;9.244;2023-07-30T06:32:16;2.23;;;1.70;;
5718;SDS011;2884;47.734;9.244;2023-07-30T06:34:41;1.70;;;1.60;;
5718;SDS011;2884;47.734;9.244;2023-07-30T06:37:07;3.20;;;2.30;;
5718;SDS011;2884;47.734;9.244;2023-07-30T06:39:32;1.97;;;1.80;;
5718;SDS011;2884;47.734;9.244;2023-07-30T06:41:58;1.80;;;1.70;;
5718;SDS011;2884;47.734;9.244;2023-07-30T06:44:23;2.10;;;1.93;;
5718;SDS011;2884;47.734;9.244;2023-07-30T06:46:50;1.50;;;1.40;;
5718;SDS011;2884;47.734;9.244;2023-07-30T06:49:16;1.53;;;1.43;;
5718;SDS011;2884;47.734;9.244;2023-07-30T06:51:41;1.60;;;1.50;;
5718;SDS011;2884;47.734;9.244;2023-07-30T06:54:07;1.87;;;1.77;;
5718;SDS011;2884;47.734;9.244;2023-07-30T06:56:32;1.93;;;1.83;;
5718;SDS011;2884;47.734;9.244;2023-07-30T06:58:58;1.80;;;1.70;;
5718;SDS011;2884;47.734;9.244;2023-07-30T07:01:24;2.20;;;2.00;;
5718;SDS011;2884;47.734;9.244;2023-07-30T07:03:49;5.67;;;2.00;;
5718;SDS011;2884;47.734;9.244;2023-07-30T07:06:15;2.80;;;2.20;;
5718;SDS011;2884;47.734;9.244;2023-07-30T07:08:40;1.60;;;1.50;;
5718;SDS011;2884;47.734;9.244;2023-07-30T07:11:06;1.90;;;1.80;;
5718;SDS011;2884;47.734;9.244;2023-07-30T07:13:31;1.40;;;1.33;;
5718;SDS011;2884;47.734;9.244;2023-07-30T07:15:57;1.60;;;1.50;;
5718;SDS011;2884;47.734;9.244;2023-07-30T07:18:23;1.83;;;1.73;;
5718;SDS011;2884;47.734;9.244;2023-07-30T07:20:48;1.80;;;1.53;;
5718;SDS011;2884;47.734;9.244;2023-07-30T07:23:14;1.60;;;1.50;;
5718;SDS011;2884;47.734;9.244;2023-07-30T07:25:39;3.73;;;1.80;;
5718;SDS011;2884;47.734;9.244;2023-07-30T07:28:05;1.53;;;1.43;;
5718;SDS011;2884;47.734;9.244;2023-07-30T07:30:31;2.00;;;1.70;;
5718;SDS011;2884;47.734;9.244;2023-07-30T07:33:00;1.60;;;1.50;;
5718;SDS011;2884;47.734;9.244;2023-07-30T07:35:25;1.90;;;1.50;;
5718;SDS011;2884;47.734;9.244;2023-07-30T07:37:51;2.13;;;1.60;;
5718;SDS011;2884;47.734;9.244;2023-07-30T07:40:16;2.60;;;1.70;;
5718;SDS011;2884;47.734;9.244;2023-07-30T07:42:42;1.57;;;1.47;;
5718;SDS011;2884;47.734;9.244;2023-07-30T07:45:07;1.87;;;1.50;;
5718;SDS011;2884;47.734;9.244;2023-07-30T07:47:33;1.73;;;1.43;;
5718;SDS011;2884;47.734;9.244;2023-07-30T07:49:59;2.30;;;1.60;;
5718;SDS011;2884;47.734;9.244;2023-07-30T07:52:25;2.60;;;1.90;;
5718;SDS011;2884;47.734;9.244;2023-07-30T07:54:50;1.40;;;1.30;;
5718;SDS011;2884;47.734;9.244;2023-07-30T07:57:16;1.20;;;1.20;;
5718;SDS011;2884;47.734;9.244;2023-07-30T07:59:41;1.30;;;1.30;;
5718;SDS011;2884;47.734;9.244;2023-07-30T08:02:13;2.03;;;1.80;;
5718;SDS011;2884;47.734;9.244;2023-07-30T08:04:38;1.70;;;1.60;;
5718;SDS011;2884;47.734;9.244;2023-07-30T08:07:04;2.30;;;1.50;;
5718;SDS011;2884;47.734;9.244;2023-07-30T08:09:30;2.30;;;1.40;;
5718;SDS011;2884;47.734;9.244;2023-07-30T08:11:56;6.60;;;2.03;;
5718;SDS011;2884;47.734;9.244;2023-07-30T08:14:21;1.23;;;1.23;;
5718;SDS011;2884;47.734;9.244;2023-07-30T08:16:47;1.50;;;1.37;;
5718;SDS011;2884;47.734;9.244;2023-07-30T08:19:12;1.70;;;1.60;;
5718;SDS011;2884;47.734;9.244;2023-07-30T08:21:38;1.30;;;1.30;;
5718;SDS011;2884;47.734;9.244;2023-07-30T08:24:04;6.63;;;1.43;;
5718;SDS011;2884;47.734;9.244;2023-07-30T08:26:29;1.80;;;1.30;;
5718;SDS011;2884;47.734;9.244;2023-07-30T08:28:55;2.97;;;1.60;;
5718;SDS011;2884;47.734;9.244;2023-07-30T08:31:21;1.70;;;1.60;;
5718;SDS011;2884;47.734;9.244;2023-07-30T08:33:46;1.33;;;1.20;;
5718;SDS011;2884;47.734;9.244;2023-07-30T08:36:12;1.47;;;1.37;;
5718;SDS011;2884;47.734;9.244;2023-07-30T08:38:37;1.40;;;1.30;;
5718;SDS011;2884;47.734;9.244;2023-07-30T08:41:04;0.90;;;0.90;;
5718;SDS011;2884;47.734;9.244;2023-07-30T08:43:31;1.07;;;0.93;;
5718;SDS011;2884;47.734;9.244;2023-07-30T08:45:59;1.40;;;1.30;;
5718;SDS011;2884;47.734;9.244;2023-07-30T08:48:27;1.03;;;0.90;;
5718;SDS011;2884;47.734;9.244;2023-07-30T08:50:56;0.90;;;0.90;;
5718;SDS011;2884;47.734;9.244;2023-07-30T08:53:26;2.87;;;1.17;;
5718;SDS011;2884;47.734;9.244;2023-07-30T08:55:53;1.43;;;1.20;;
5718;SDS011;2884;47.734;9.244;2023-07-30T08:58:21;1.10;;;1.00;;
5718;SDS011;2884;47.734;9.244;2023-07-30T09:00:49;1.53;;;1.17;;
5718;SDS011;2884;47.734;9.244;2023-07-30T09:03:15;1.20;;;1.10;;
5718;SDS011;2884;47.734;9.244;2023-07-30T09:05:43;1.93;;;1.00;;
5718;SDS011;2884;47.734;9.244;2023-07-30T09:08:09;1.50;;;1.40;;
5718;SDS011;2884;47.734;9.244;2023-07-30T09:10:35;1.20;;;1.10;;
5718;SDS011;2884;47.734;9.244;2023-07-30T09:13:02;1.30;;;1.20;;
5718;SDS011;2884;47.734;9.244;2023-07-30T09:15:32;1.17;;;1.17;;
5718;SDS011;2884;47.734;9.244;2023-07-30T09:18:01;5.53;;;1.33;;
5718;SDS011;2884;47.734;9.244;2023-07-30T09:20:28;1.00;;;1.00;;
5718;SDS011;2884;47.734;9.244;2023-07-30T09:22:57;1.40;;;1.30;;
5718;SDS011;2884;47.734;9.244;2023-07-30T09:25:23;1.20;;;1.10;;
5718;SDS011;2884;47.734;9.244;2023-07-30T09:27:52;0.90;;;0.90;;
5718;SDS011;2884;47.734;9.244;2023-07-30T09:30:25;3.47;;;1.20;;
5718;SDS011;2884;47.734;9.244;2023-07-30T09:32:54;1.87;;;1.20;;
5718;SDS011;2884;47.734;9.244;2023-07-30T09:35:20;1.10;;;1.10;;
5718;SDS011;2884;47.734;9.244;2023-07-30T09:37:47;1.30;;;1.10;;
5718;SDS011;2884;47.734;9.244;2023-07-30T09:40:15;1.20;;;1.10;;
5718;SDS011;2884;47.734;9.244;2023-07-30T09:42:44;1.40;;;1.30;;
5718;SDS011;2884;47.734;9.244;2023-07-30T09:45:24;1.30;;;1.20;;
5718;SDS011;2884;47.734;9.244;2023-07-30T09:47:51;1.40;;;1.30;;
5718;SDS011;2884;47.734;9.244;2023-07-30T09:50:18;1.10;;;1.10;;
5718;SDS011;2884;47.734;9.244;2023-07-30T09:52:44;1.53;;;1.43;;
5718;SDS011;2884;47.734;9.244;2023-07-30T09:55:10;2.97;;;1.50;;
5718;SDS011;2884;47.734;9.244;2023-07-30T09:57:36;1.20;;;1.10;;
5718;SDS011;2884;47.734;9.244;2023-07-30T10:00:04;1.37;;;1.27;;
5718;SDS011;2884;47.734;9.244;2023-07-30T10:02:31;1.10;;;1.10;;
5718;SDS011;2884;47.734;9.244;2023-07-30T10:04:59;1.50;;;1.40;;
5718;SDS011;2884;47.734;9.244;2023-07-30T10:07:26;1.97;;;1.30;;
5718;SDS011;2884;47.734;9.244;2023-07-30T10:09:55;1.40;;;1.30;;
5718;SDS011;2884;47.734;9.244;2023-07-30T10:12:28;1.83;;;1.37;;
5718;SDS011;2884;47.734;9.244;2023-07-30T10:14:56;1.80;;;1.70;;
5718;SDS011;2884;47.734;9.244;2023-07-30T10:17:22;1.70;;;1.60;;
5718;SDS011;2884;47.734;9.244;2023-07-30T10:19:48;1.43;;;1.23;;
5718;SDS011;2884;47.734;9.244;2023-07-30T10:25:00;1.60;;;1.50;;
5718;SDS011;2884;47.734;9.244;2023-07-30T10:27:38;2.00;;;1.20;;
5718;SDS011;2884;47.734;9.244;2023-07-30T10:33:09;1.67;;;1.57;;
5718;SDS011;2884;47.734;9.244;2023-07-30T10:38:18;1.47;;;1.37;;
5718;SDS011;2884;47.734;9.244;2023-07-30T10:41:07;2.20;;;1.43;;
5718;SDS011;2884;47.734;9.244;2023-07-30T10:43:41;3.30;;;1.50;;
5718;SDS011;2884;47.734;9.244;2023-07-30T10:46:09;1.70;;;1.60;;
5718;SDS011;2884;47.734;9.244;2023-07-30T10:48:36;1.43;;;1.33;;
5718;SDS011;2884;47.734;9.244;2023-07-30T10:51:08;1.43;;;1.30;;
5718;SDS011;2884;47.734;9.244;2023-07-30T10:53:35;2.73;;;1.33;;
5718;SDS011;2884;47.734;9.244;2023-07-30T10:56:05;1.63;;;1.40;;
5718;SDS011;2884;47.734;9.244;2023-07-30T10:58:32;1.50;;;1.40;;
5718;SDS011;2884;47.734;9.244;2023-07-30T11:01:01;2.40;;;1.60;;
5718;SDS011;2884;47.734;9.244;2023-07-30T11:03:30;1.50;;;1.30;;
5718;SDS011;2884;47.734;9.244;2023-07-30T11:05:59;3.37;;;1.60;;
5718;SDS011;2884;47.734;9.244;2023-07-30T11:08:33;2.33;;;1.60;;
5718;SDS011;2884;47.734;9.244;2023-07-30T11:10:59;7.60;;;1.53;;
5718;SDS011;2884;47.734;9.244;2023-07-30T11:13:25;8.07;;;1.73;;
5718;SDS011;2884;47.734;9.244;2023-07-30T11:15:52;1.63;;;1.50;;
5718;SDS011;2884;47.734;9.244;2023-07-30T11:18:18;2.63;;;1.50;;
5718;SDS011;2884;47.734;9.244;2023-07-30T11:20:44;1.70;;;1.50;;
5718;SDS011;2884;47.734;9.244;2023-07-30T11:23:20;2.73;;;1.40;;
5718;SDS011;2884;47.734;9.244;2023-07-30T11:25:50;3.27;;;1.93;;
5718;SDS011;2884;47.734;9.244;2023-07-30T11:31:02;1.20;;;1.20;;
5718;SDS011;2884;47.734;9.244;2023-07-30T11:33:46;4.20;;;1.73;;
5718;SDS011;2884;47.734;9.244;2023-07-30T11:36:14;2.13;;;1.50;;
5718;SDS011;2884;47.734;9.244;2023-07-30T11:38:41;3.43;;;1.53;;
5718;SDS011;2884;47.734;9.244;2023-07-30T11:41:08;2.10;;;2.00;;
5718;SDS011;2884;47.734;9.244;2023-07-30T11:43:39;2.00;;;1.87;;
5718;SDS011;2884;47.734;9.244;2023-07-30T11:46:07;1.87;;;1.67;;
5718;SDS011;2884;47.734;9.244;2023-07-30T11:48:38;2.40;;;1.90;;
5718;SDS011;2884;47.734;9.244;2023-07-30T11:51:05;1.70;;;1.60;;
5718;SDS011;2884;47.734;9.244;2023-07-30T11:56:43;3.40;;;1.73;;
5718;SDS011;2884;47.734;9.244;2023-07-30T11:59:09;1.70;;;1.43;;
5718;SDS011;2884;47.734;9.244;2023-07-30T12:01:35;2.13;;;1.77;;
5718;SDS011;2884;47.734;9.244;2023-07-30T12:04:02;3.80;;;1.60;;
5718;SDS011;2884;47.734;9.244;2023-07-30T12:09:15;5.33;;;1.80;;
5718;SDS011;2884;47.734;9.244;2023-07-30T12:11:52;1.40;;;1.30;;
5718;SDS011;2884;47.734;9.244;2023-07-30T12:14:28;1.33;;;1.23;;
5718;SDS011;2884;47.734;9.244;2023-07-30T12:16:59;2.77;;;1.80;;
5718;SDS011;2884;47.734;9.244;2023-07-30T12:19:25;7.43;;;2.00;;
5718;SDS011;2884;47.734;9.244;2023-07-30T12:21:51;5.13;;;1.80;;
5718;SDS011;2884;47.734;9.244;2023-07-30T12:24:16;2.90;;;1.70;;
5718;SDS011;2884;47.734;9.244;2023-07-30T12:26:42;1.57;;;1.47;;
5718;SDS011;2884;47.734;9.244;2023-07-30T12:29:08;3.87;;;1.60;;
5718;SDS011;2884;47.734;9.244;2023-07-30T12:31:33;4.03;;;1.40;;
5718;SDS011;2884;47.734;9.244;2023-07-30T12:33:59;3.13;;;1.30;;
5718;SDS011;2884;47.734;9.244;2023-07-30T12:36:24;4.63;;;1.87;;
5718;SDS011;2884;47.734;9.244;2023-07-30T12:38:51;1.30;;;1.20;;
5718;SDS011;2884;47.734;9.244;2023-07-30T12:41:18;1.57;;;1.47;;
5718;SDS011;2884;47.734;9.244;2023-07-30T12:43:51;1.80;;;1.70;;
5718;SDS011;2884;47.734;9.244;2023-07-30T12:46:18;1.60;;;1.50;;
5718;SDS011;2884;47.734;9.244;2023-07-30T12:48:44;2.20;;;1.40;;
5718;SDS011;2884;47.734;9.244;2023-07-30T12:51:09;1.47;;;1.37;;
5718;SDS011;2884;47.734;9.244;2023-07-30T12:53:35;3.83;;;1.47;;
5718;SDS011;2884;47.734;9.244;2023-07-30T12:56:01;2.10;;;2.00;;
5718;SDS011;2884;47.734;9.244;2023-07-30T12:58:26;2.07;;;1.90;;
5718;SDS011;2884;47.734;9.244;2023-07-30T13:00:52;4.37;;;1.83;;
5718;SDS011;2884;47.734;9.244;2023-07-30T13:03:17;6.63;;;1.97;;
5718;SDS011;2884;47.734;9.244;2023-07-30T13:05:44;1.67;;;1.57;;
5718;SDS011;2884;47.734;9.244;2023-07-30T13:08:09;1.80;;;1.60;;
5718;SDS011;2884;47.734;9.244;2023-07-30T13:10:35;1.70;;;1.60;;
5718;SDS011;2884;47.734;9.244;2023-07-30T13:13:01;2.00;;;1.90;;
5718;SDS011;2884;47.734;9.244;2023-07-30T13:15:27;1.83;;;1.50;;
5718;SDS011;2884;47.734;9.244;2023-07-30T13:17:53;1.80;;;1.70;;
5718;SDS011;2884;47.734;9.244;2023-07-30T13:20:19;2.90;;;1.70;;
5718;SDS011;2884;47.734;9.244;2023-07-30T13:22:45;1.60;;;1.50;;
5718;SDS011;2884;47.734;9.244;2023-07-30T13:25:11;4.97;;;1.57;;
5718;SDS011;2884;47.734;9.244;2023-07-30T13:27:37;1.53;;;1.43;;
5718;SDS011;2884;47.734;9.244;2023-07-30T13:30:03;1.90;;;1.70;;
5718;SDS011;2884;47.734;9.244;2023-07-30T13:32:29;2.23;;;1.60;;
5718;SDS011;2884;47.734;9.244;2023-07-30T13:34:56;1.90;;;1.67;;
5718;SDS011;2884;47.734;9.244;2023-07-30T13:37:22;7.53;;;1.83;;
5718;SDS011;2884;47.734;9.244;2023-07-30T13:39:48;1.73;;;1.63;;
5718;SDS011;2884;47.734;9.244;2023-07-30T13:42:14;3.00;;;2.03;;
5718;SDS011;2884;47.734;9.244;2023-07-30T13:44:39;1.80;;;1.63;;
5718;SDS011;2884;47.734;9.244;2023-07-30T13:47:05;1.63;;;1.40;;
5718;SDS011;2884;47.734;9.244;2023-07-30T13:49:31;1.93;;;1.80;;
5718;SDS011;2884;47.734;9.244;2023-07-30T13:51:56;1.60;;;1.50;;
5718;SDS011;2884;47.734;9.244;2023-07-30T13:54:22;1.50;;;1.40;;
5718;SDS011;2884;47.734;9.244;2023-07-30T13:56:48;1.33;;;1.23;;
5718;SDS011;2884;47.734;9.244;2023-07-30T13:59:14;9.93;;;1.57;;
5718;SDS011;2884;47.734;9.244;2023-07-30T14:01:42;3.40;;;1.70;;
5718;SDS011;2884;47.734;9.244;2023-07-30T14:04:08;2.53;;;1.70;;
5718;SDS011;2884;47.734;9.244;2023-07-30T14:06:33;2.73;;;1.60;;
5718;SDS011;2884;47.734;9.244;2023-07-30T14:08:59;1.87;;;1.60;;
5718;SDS011;2884;47.734;9.244;2023-07-30T14:11:26;1.50;;;1.40;;
5718;SDS011;2884;47.734;9.244;2023-07-30T14:13:52;3.67;;;1.70;;
5718;SDS011;2884;47.734;9.244;2023-07-30T14:16:18;1.63;;;1.53;;
5718;SDS011;2884;47.734;9.244;2023-07-30T14:18:44;5.70;;;1.50;;
5718;SDS011;2884;47.734;9.244;2023-07-30T14:21:10;3.03;;;1.90;;
5718;SDS011;2884;47.734;9.244;2023-07-30T14:23:36;2.23;;;1.70;;
5718;SDS011;2884;47.734;9.244;2023-07-30T14:26:03;2.90;;;1.90;;
5718;SDS011;2884;47.734;9.244;2023-07-30T14:28:29;3.03;;;1.90;;
5718;SDS011;2884;47.734;9.244;2023-07-30T14:30:55;1.80;;;1.60;;
5718;SDS011;2884;47.734;9.244;2023-07-30T14:33:21;1.50;;;1.40;;
5718;SDS011;2884;47.734;9.244;2023-07-30T14:35:47;1.93;;;1.83;;
5718;SDS011;2884;47.734;9.244;2023-07-30T14:38:13;3.53;;;1.50;;
5718;SDS011;2884;47.734;9.244;2023-07-30T14:40:38;1.80;;;1.70;;
5718;SDS011;2884;47.734;9.244;2023-07-30T14:43:04;2.70;;;1.97;;
5718;SDS011;2884;47.734;9.244;2023-07-30T14:45:29;2.07;;;1.87;;
5718;SDS011;2884;47.734;9.244;2023-07-30T14:47:55;2.43;;;1.50;;
5718;SDS011;2884;47.734;9.244;2023-07-30T14:50:22;1.70;;;1.60;;
5718;SDS011;2884;47.734;9.244;2023-07-30T14:52:48;1.83;;;1.73;;
5718;SDS011;2884;47.734;9.244;2023-07-30T14:55:13;1.83;;;1.57;;
5718;SDS011;2884;47.734;9.244;2023-07-30T14:57:39;1.43;;;1.33;;
5718;SDS011;2884;47.734;9.244;2023-07-30T15:00:05;3.17;;;1.30;;
5718;SDS011;2884;47.734;9.244;2023-07-30T15:02:32;4.20;;;1.37;;
5718;SDS011;2884;47.734;9.244;2023-07-30T15:04:59;2.27;;;1.53;;
5718;SDS011;2884;47.734;9.244;2023-07-30T15:07:25;2.17;;;1.80;;
5718;SDS011;2884;47.734;9.244;2023-07-30T15:09:52;2.30;;;1.50;;
5718;SDS011;2884;47.734;9.244;2023-07-30T15:12:19;2.20;;;1.60;;
5718;SDS011;2884;47.734;9.244;2023-07-30T15:14:44;1.60;;;1.50;;
5718;SDS011;2884;47.734;9.244;2023-07-30T15:17:10;1.83;;;1.73;;
5718;SDS011;2884;47.734;9.244;2023-07-30T15:19:36;6.97;;;2.17;;
5718;SDS011;2884;47.734;9.244;2023-07-30T15:22:01;2.03;;;1.93;;
5718;SDS011;2884;47.734;9.244;2023-07-30T15:24:28;4.20;;;1.50;;
5718;SDS011;2884;47.734;9.244;2023-07-30T15:26:54;1.80;;;1.53;;
5718;SDS011;2884;47.734;9.244;2023-07-30T15:29:20;2.20;;;1.57;;